Time;durP1;ratioP1;P1;durP2;ratioP2;P2;SDS_P1;SDS_P2;PMS_P1;PMS_P2;Temp;Humidity;BMP_temperature;BMP_pressure;BME280_temperature;BME280_humidity;BME280_pressure;Samples;Min_cycle;Max_cycle;Signal;HPM_P1;HPM_P2
2023/04/21 00:01:29;;;;;;;10.50;9.40;;;;;;;;;;5087215;28;20217;-72
2023/04/21 00:03:56;;;;;;;9.63;8.63;;;;;;;;;;5070941;28;20231;-75
2023/04/21 00:06:25;;;;;;;11.30;8.80;;;;;;;;;;5071461;28;20212;-73
2023/04/21 00:08:53;;;;;;;9.90;8.93;;;;;;;;;;5071465;28;20287;-73
2023/04/21 00:11:21;;;;;;;10.37;9.23;;;;;;;;;;5086193;28;20263;-75
2023/04/21 00:13:48;;;;;;;10.63;9.53;;;;;;;;;;5070488;28;20202;-76
2023/04/21 00:16:16;;;;;;;9.30;8.40;;;;;;;;;;5086019;28;20284;-76
2023/04/21 00:18:43;;;;;;;10.80;8.27;;;;;;;;;;5070490;28;20232;-75
2023/04/21 00:21:10;;;;;;;10.90;9.73;;;;;;;;;;5069860;28;20239;-74
2023/04/21 00:23:37;;;;;;;10.47;8.87;;;;;;;;;;5069966;28;20271;-75
2023/04/21 00:26:04;;;;;;;10.83;9.17;;;;;;;;;;5070601;28;20799;-75
2023/04/21 00:28:32;;;;;;;11.23;8.80;;;;;;;;;;5085619;28;20234;-75
2023/04/21 00:30:59;;;;;;;9.50;8.17;;;;;;;;;;5070102;28;20548;-75
2023/04/21 00:33:26;;;;;;;10.17;8.80;;;;;;;;;;5070465;28;20267;-76
2023/04/21 00:35:55;;;;;;;10.30;8.33;;;;;;;;;;5069669;28;20297;-76
2023/04/21 00:38:23;;;;;;;10.00;8.23;;;;;;;;;;5069300;28;20235;-74
2023/04/21 00:40:50;;;;;;;9.60;8.60;;;;;;;;;;5070563;28;20205;-75
2023/04/21 00:43:17;;;;;;;8.33;7.43;;;;;;;;;;5069722;28;20252;-75
2023/04/21 00:45:48;;;;;;;10.07;7.73;;;;;;;;;;5070420;28;20583;-75
2023/04/21 00:48:15;;;;;;;9.27;7.30;;;;;;;;;;5070101;28;20226;-73
2023/04/21 00:50:43;;;;;;;8.30;7.40;;;;;;;;;;5070203;28;20197;-75
2023/04/21 00:53:14;;;;;;;10.30;7.10;;;;;;;;;;5069939;28;20647;-75
2023/04/21 00:55:42;;;;;;;9.03;7.80;;;;;;;;;;5051518;28;20205;-74
2023/04/21 00:58:09;;;;;;;8.37;7.47;;;;;;;;;;5069798;28;20202;-74
2023/04/21 01:00:38;;;;;;;7.93;7.13;;;;;;;;;;5052032;28;20197;-74
2023/04/21 01:03:06;;;;;;;7.17;6.47;;;;;;;;;;5069823;28;20204;-75
2023/04/21 01:05:34;;;;;;;8.67;7.30;;;;;;;;;;5070491;28;20589;-75
2023/04/21 01:08:02;;;;;;;10.80;8.10;;;;;;;;;;5070064;28;20793;-75
2023/04/21 01:10:29;;;;;;;9.70;7.20;;;;;;;;;;5069987;28;20205;-74
2023/04/21 01:12:56;;;;;;;8.07;7.27;;;;;;;;;;5069114;28;20245;-75
2023/04/21 01:15:26;;;;;;;8.53;7.53;;;;;;;;;;5069803;28;20289;-75
2023/04/21 01:17:53;;;;;;;9.37;8.00;;;;;;;;;;5070258;28;20248;-75
2023/04/21 01:20:20;;;;;;;9.97;8.73;;;;;;;;;;5069668;28;20229;-75
2023/04/21 01:22:50;;;;;;;10.50;8.73;;;;;;;;;;5069783;28;20205;-75
2023/04/21 01:25:20;;;;;;;10.20;8.67;;;;;;;;;;5084781;28;20259;-75
2023/04/21 01:27:47;;;;;;;9.30;7.80;;;;;;;;;;5069609;28;20236;-75
2023/04/21 01:30:15;;;;;;;11.83;9.57;;;;;;;;;;5069662;28;20221;-75
2023/04/21 01:32:42;;;;;;;10.40;8.37;;;;;;;;;;5069379;28;20296;-75
2023/04/21 01:35:10;;;;;;;12.90;8.57;;;;;;;;;;5069873;28;20233;-75
2023/04/21 01:37:37;;;;;;;10.70;8.57;;;;;;;;;;5069536;28;20289;-74
2023/04/21 01:40:07;;;;;;;11.00;9.50;;;;;;;;;;5069132;28;20234;-75
2023/04/21 01:42:37;;;;;;;10.90;9.40;;;;;;;;;;5051438;28;20197;-76
2023/04/21 01:45:05;;;;;;;10.37;8.50;;;;;;;;;;5069771;28;20738;-75
2023/04/21 01:47:33;;;;;;;13.03;10.50;;;;;;;;;;5069179;28;20300;-75
2023/04/21 01:50:00;;;;;;;25.63;13.50;;;;;;;;;;5069094;28;20279;-75
2023/04/21 01:52:27;;;;;;;46.93;13.87;;;;;;;;;;5069248;28;20288;-75
2023/04/21 01:54:55;;;;;;;17.33;10.33;;;;;;;;;;5070868;28;20228;-75
2023/04/21 01:57:22;;;;;;;18.33;7.60;;;;;;;;;;5072921;28;20197;-75
2023/04/21 01:59:49;;;;;;;15.23;6.70;;;;;;;;;;5072493;28;20328;-75
2023/04/21 02:02:16;;;;;;;13.03;8.27;;;;;;;;;;5054924;28;20237;-74
2023/04/21 02:04:44;;;;;;;35.30;10.13;;;;;;;;;;5072602;28;20577;-75
2023/04/21 02:07:11;;;;;;;29.07;11.40;;;;;;;;;;5072484;28;20263;-75
2023/04/21 02:09:39;;;;;;;13.83;9.13;;;;;;;;;;5072269;28;20225;-75
2023/04/21 02:12:07;;;;;;;16.23;8.03;;;;;;;;;;5072323;28;20256;-74
2023/04/21 02:14:34;;;;;;;34.70;9.13;;;;;;;;;;5072602;28;20288;-74
2023/04/21 02:17:02;;;;;;;11.73;7.37;;;;;;;;;;5073003;28;20725;-76
2023/04/21 02:19:30;;;;;;;46.43;6.97;;;;;;;;;;5071931;28;20257;-74
2023/04/21 02:21:57;;;;;;;27.00;4.80;;;;;;;;;;5087933;28;20209;-74
2023/04/21 02:24:24;;;;;;;19.00;5.27;;;;;;;;;;5071166;28;20228;-75
2023/04/21 02:26:53;;;;;;;15.57;5.00;;;;;;;;;;5063949;28;20271;-75
2023/04/21 02:29:21;;;;;;;16.13;5.43;;;;;;;;;;5054117;28;20355;-75
2023/04/21 02:31:48;;;;;;;24.77;6.33;;;;;;;;;;5071814;28;20698;-75
2023/04/21 02:34:29;;;;;;;26.83;5.20;;;;;;;;;;5071706;28;20194;-74
2023/04/21 02:36:56;;;;;;;13.77;5.27;;;;;;;;;;5072009;28;20887;-72
2023/04/21 02:39:23;;;;;;;7.90;6.20;;;;;;;;;;5072022;28;20313;-76
2023/04/21 02:41:51;;;;;;;23.33;7.00;;;;;;;;;;5072076;28;20209;-75
2023/04/21 02:44:18;;;;;;;13.17;7.43;;;;;;;;;;5071716;28;20309;-76
2023/04/21 02:46:45;;;;;;;10.40;6.43;;;;;;;;;;5071956;28;20627;-76
2023/04/21 02:49:13;;;;;;;5.37;4.87;;;;;;;;;;5053788;28;20308;-74
2023/04/21 02:51:40;;;;;;;14.13;5.00;;;;;;;;;;5071227;28;20693;-76
2023/04/21 02:54:07;;;;;;;5.30;4.30;;;;;;;;;;5070656;28;20241;-76
2023/04/21 02:56:34;;;;;;;5.27;4.77;;;;;;;;;;5053442;28;20201;-76
2023/04/21 02:59:02;;;;;;;16.20;5.10;;;;;;;;;;5053253;28;20312;-75
2023/04/21 03:01:29;;;;;;;10.27;4.90;;;;;;;;;;5071093;28;20259;-76
2023/04/21 03:03:56;;;;;;;6.00;5.40;;;;;;;;;;5053245;28;20205;-75
2023/04/21 03:06:24;;;;;;;7.80;5.47;;;;;;;;;;5070799;28;20210;-74
2023/04/21 03:08:51;;;;;;;6.90;5.70;;;;;;;;;;5070466;28;20221;-76
2023/04/21 03:11:21;;;;;;;30.40;15.27;;;;;;;;;;5071063;28;20216;-74
2023/04/21 03:13:49;;;;;;;25.43;13.20;;;;;;;;;;5086565;28;20221;-76
2023/04/21 03:16:16;;;;;;;12.33;8.50;;;;;;;;;;5070167;28;20202;-75
2023/04/21 03:18:43;;;;;;;10.07;7.80;;;;;;;;;;5070392;28;20304;-76
2023/04/21 03:21:11;;;;;;;17.37;9.80;;;;;;;;;;5071134;28;20213;-75
2023/04/21 03:23:38;;;;;;;23.07;13.30;;;;;;;;;;5071000;28;20754;-76
2023/04/21 03:26:08;;;;;;;32.63;16.93;;;;;;;;;;5086158;28;20292;-74
2023/04/21 03:28:36;;;;;;;15.43;9.17;;;;;;;;;;5086771;28;20885;-75
2023/04/21 03:31:03;;;;;;;10.33;7.40;;;;;;;;;;5070205;28;20210;-73
2023/04/21 03:33:30;;;;;;;8.37;6.63;;;;;;;;;;5069403;28;20208;-76
2023/04/21 03:35:58;;;;;;;7.57;5.97;;;;;;;;;;5071084;28;20273;-75
2023/04/21 03:38:25;;;;;;;7.77;6.30;;;;;;;;;;5071030;28;20232;-76
2023/04/21 03:40:55;;;;;;;7.83;6.60;;;;;;;;;;5052461;28;20197;-75
2023/04/21 03:43:23;;;;;;;12.17;8.73;;;;;;;;;;5070508;28;20251;-73
2023/04/21 03:45:50;;;;;;;12.87;9.43;;;;;;;;;;5070520;28;20248;-74
2023/04/21 03:48:17;;;;;;;10.83;7.77;;;;;;;;;;5069966;28;20212;-76
2023/04/21 03:50:44;;;;;;;9.30;7.23;;;;;;;;;;5070117;28;20231;-76
2023/04/21 03:53:12;;;;;;;25.67;12.73;;;;;;;;;;5069931;28;20241;-76
2023/04/21 03:55:39;;;;;;;20.00;11.60;;;;;;;;;;5070072;28;20712;-76
2023/04/21 03:58:06;;;;;;;15.13;9.70;;;;;;;;;;5070266;28;20289;-75
2023/04/21 04:00:34;;;;;;;18.83;12.00;;;;;;;;;;5071232;28;20209;-74
2023/04/21 04:03:01;;;;;;;19.70;10.37;;;;;;;;;;5071857;28;20223;-75
2023/04/21 04:05:29;;;;;;;20.87;10.37;;;;;;;;;;5072672;28;20221;-76
2023/04/21 04:07:56;;;;;;;28.93;12.13;;;;;;;;;;5090013;28;20326;-74
2023/04/21 04:10:23;;;;;;;21.23;10.87;;;;;;;;;;5089917;28;20326;-74
2023/04/21 04:12:51;;;;;;;16.63;9.70;;;;;;;;;;5072070;28;20662;-75
2023/04/21 04:15:18;;;;;;;14.33;9.20;;;;;;;;;;5089836;28;20207;-75
2023/04/21 04:17:46;;;;;;;14.43;9.17;;;;;;;;;;5089768;28;20209;-75
2023/04/21 04:20:14;;;;;;;15.93;8.60;;;;;;;;;;5090087;28;20290;-75
2023/04/21 04:22:41;;;;;;;12.33;8.03;;;;;;;;;;5089489;28;20213;-76
2023/04/21 04:25:09;;;;;;;13.03;7.53;;;;;;;;;;5089908;28;20209;-76
2023/04/21 04:27:36;;;;;;;15.00;8.87;;;;;;;;;;5088489;28;20209;-74
2023/04/21 04:30:06;;;;;;;12.93;7.97;;;;;;;;;;5071879;28;20860;-76
2023/04/21 04:32:33;;;;;;;14.97;9.70;;;;;;;;;;5089143;28;20688;-75
2023/04/21 04:35:01;;;;;;;29.10;16.10;;;;;;;;;;5070905;28;20204;-76
2023/04/21 04:37:28;;;;;;;28.57;16.50;;;;;;;;;;5089007;28;20208;-75
2023/04/21 04:39:56;;;;;;;28.40;15.50;;;;;;;;;;5089362;28;20236;-76
2023/04/21 04:42:24;;;;;;;46.10;26.03;;;;;;;;;;5089618;28;20623;-74
2023/04/21 04:44:56;;;;;;;26.97;17.27;;;;;;;;;;5089446;28;20201;-74
2023/04/21 04:47:23;;;;;;;29.27;18.50;;;;;;;;;;5089063;28;20713;-73
2023/04/21 04:49:50;;;;;;;11.93;8.00;;;;;;;;;;5089761;28;20339;-74
2023/04/21 04:52:18;;;;;;;10.83;6.93;;;;;;;;;;5071535;28;20205;-75
2023/04/21 04:54:46;;;;;;;8.47;6.43;;;;;;;;;;5090086;28;20204;-76
2023/04/21 04:57:13;;;;;;;8.43;6.47;;;;;;;;;;5089178;28;20205;-75
2023/04/21 04:59:40;;;;;;;10.37;7.70;;;;;;;;;;5089456;28;20263;-75
2023/04/21 05:02:09;;;;;;;14.57;9.93;;;;;;;;;;5070944;28;20732;-73
2023/04/21 05:04:36;;;;;;;15.37;11.03;;;;;;;;;;5089384;28;20200;-74
2023/04/21 05:07:06;;;;;;;19.00;11.73;;;;;;;;;;5088957;28;20274;-74
2023/04/21 05:09:34;;;;;;;19.00;11.33;;;;;;;;;;5089177;28;20286;-75
2023/04/21 05:12:01;;;;;;;20.03;11.13;;;;;;;;;;5089322;28;20251;-75
2023/04/21 05:14:28;;;;;;;18.43;12.03;;;;;;;;;;5089347;28;20312;-75
2023/04/21 05:16:55;;;;;;;18.73;12.10;;;;;;;;;;5071715;28;20247;-75
2023/04/21 05:19:23;;;;;;;16.47;10.37;;;;;;;;;;5089257;28;20260;-74
2023/04/21 05:21:50;;;;;;;17.20;10.90;;;;;;;;;;5088938;28;20291;-75
2023/04/21 05:24:22;;;;;;;19.53;12.13;;;;;;;;;;5088898;28;20196;-74
2023/04/21 05:26:49;;;;;;;17.93;11.47;;;;;;;;;;5089424;28;20192;-76
2023/04/21 05:29:16;;;;;;;20.77;11.17;;;;;;;;;;5072218;28;20220;-75
2023/04/21 05:31:44;;;;;;;22.10;16.90;;;;;;;;;;5075726;28;20281;-75
2023/04/21 05:34:11;;;;;;;18.20;14.27;;;;;;;;;;5093274;28;20200;-73
2023/04/21 05:36:41;;;;;;;14.53;10.90;;;;;;;;;;5093406;28;20215;-76
2023/04/21 05:39:09;;;;;;;12.50;9.27;;;;;;;;;;5074770;28;20446;-75
2023/04/21 05:41:36;;;;;;;14.00;10.57;;;;;;;;;;5093000;28;20702;-74
2023/04/21 05:44:03;;;;;;;13.30;9.60;;;;;;;;;;5092810;28;20207;-73
2023/04/21 05:46:33;;;;;;;12.27;8.90;;;;;;;;;;5093149;28;20269;-74
2023/04/21 05:49:01;;;;;;;13.30;9.13;;;;;;;;;;5074875;28;20268;-74
2023/04/21 05:51:28;;;;;;;14.60;9.73;;;;;;;;;;5092251;28;20277;-74
2023/04/21 05:53:55;;;;;;;17.13;10.50;;;;;;;;;;5091632;28;20258;-75
2023/04/21 05:56:23;;;;;;;17.53;10.73;;;;;;;;;;5092348;28;20227;-73
2023/04/21 05:58:50;;;;;;;15.30;10.07;;;;;;;;;;5092575;28;20299;-75
2023/04/21 06:01:18;;;;;;;15.63;10.30;;;;;;;;;;5092937;28;20623;-74
2023/04/21 06:03:48;;;;;;;15.03;9.03;;;;;;;;;;5092940;28;20212;-75
2023/04/21 06:06:17;;;;;;;12.33;9.23;;;;;;;;;;5092768;28;20209;-74
2023/04/21 06:08:44;;;;;;;15.23;9.40;;;;;;;;;;5092442;28;20227;-75
2023/04/21 06:11:12;;;;;;;14.43;9.90;;;;;;;;;;5092563;28;20593;-75
2023/04/21 06:13:39;;;;;;;14.23;10.23;;;;;;;;;;5092681;28;20201;-73
2023/04/21 06:16:09;;;;;;;13.23;9.50;;;;;;;;;;5092598;28;20732;-74
2023/04/21 06:18:37;;;;;;;12.90;9.10;;;;;;;;;;5092107;28;20225;-75
2023/04/21 06:21:04;;;;;;;14.07;10.20;;;;;;;;;;5091402;28;20643;-75
2023/04/21 06:23:32;;;;;;;12.07;9.27;;;;;;;;;;5092232;28;20261;-74
2023/04/21 06:26:00;;;;;;;15.50;10.63;;;;;;;;;;5092124;28;20243;-74
2023/04/21 06:28:27;;;;;;;15.03;10.63;;;;;;;;;;5092503;28;20274;-74
2023/04/21 06:30:55;;;;;;;15.10;9.87;;;;;;;;;;5092018;28;20260;-75
2023/04/21 06:33:22;;;;;;;14.83;10.27;;;;;;;;;;5092562;28;20651;-74
2023/04/21 06:35:50;;;;;;;16.63;10.83;;;;;;;;;;5092209;28;20576;-73
2023/04/21 06:38:17;;;;;;;14.03;10.33;;;;;;;;;;5092312;28;20213;-74
2023/04/21 06:40:44;;;;;;;14.93;10.20;;;;;;;;;;5073640;28;20212;-74
2023/04/21 06:43:12;;;;;;;15.87;10.70;;;;;;;;;;5091726;28;20205;-74
2023/04/21 06:45:39;;;;;;;17.87;11.60;;;;;;;;;;5091916;28;20236;-75
2023/04/21 06:48:07;;;;;;;15.43;10.50;;;;;;;;;;5091480;28;20266;-74
2023/04/21 06:50:34;;;;;;;15.73;10.23;;;;;;;;;;5073179;28;20312;-75
2023/04/21 06:53:02;;;;;;;13.73;9.77;;;;;;;;;;5091930;28;20212;-74
2023/04/21 06:55:29;;;;;;;17.83;10.70;;;;;;;;;;5091336;28;20215;-75
2023/04/21 06:57:56;;;;;;;14.07;10.43;;;;;;;;;;5091925;28;20288;-73
2023/04/21 07:00:24;;;;;;;16.23;11.63;;;;;;;;;;5091350;28;20320;-74
2023/04/21 07:02:51;;;;;;;15.43;11.37;;;;;;;;;;5091462;28;20227;-74
2023/04/21 07:05:19;;;;;;;16.10;12.20;;;;;;;;;;5091268;28;20205;-74
2023/04/21 07:07:46;;;;;;;15.87;12.37;;;;;;;;;;5091582;28;20236;-75
2023/04/21 07:10:18;;;;;;;18.43;12.37;;;;;;;;;;5073625;28;20701;-74
2023/04/21 07:12:47;;;;;;;15.17;10.03;;;;;;;;;;5091573;28;20185;-75
2023/04/21 07:15:16;;;;;;;14.17;10.43;;;;;;;;;;5090921;28;20230;-73
2023/04/21 07:17:43;;;;;;;16.17;10.83;;;;;;;;;;5091916;28;20873;-74
2023/04/21 07:20:10;;;;;;;15.60;11.37;;;;;;;;;;5091577;28;20237;-75
2023/04/21 07:22:40;;;;;;;13.40;9.73;;;;;;;;;;5091284;28;20642;-74
2023/04/21 07:25:08;;;;;;;13.10;9.90;;;;;;;;;;5091099;28;20204;-75
2023/04/21 07:27:36;;;;;;;14.87;11.00;;;;;;;;;;5091331;28;20244;-75
2023/04/21 07:30:05;;;;;;;10.37;8.33;;;;;;;;;;5090545;28;20327;-75
2023/04/21 07:32:33;;;;;;;9.37;7.90;;;;;;;;;;5090772;28;20209;-75
2023/04/21 07:35:01;;;;;;;13.17;9.07;;;;;;;;;;5090753;28;20253;-75
2023/04/21 07:37:29;;;;;;;10.93;8.27;;;;;;;;;;5091171;28;20632;-75
2023/04/21 07:39:56;;;;;;;9.20;8.07;;;;;;;;;;5090780;28;20248;-75
2023/04/21 07:42:25;;;;;;;10.10;8.47;;;;;;;;;;5091047;28;20253;-75
2023/04/21 07:44:54;;;;;;;10.00;8.00;;;;;;;;;;5090101;28;20193;-74
2023/04/21 07:47:22;;;;;;;10.53;8.17;;;;;;;;;;5073352;28;20205;-75
2023/04/21 07:49:49;;;;;;;8.97;7.90;;;;;;;;;;5090614;28;20224;-74
2023/04/21 07:52:17;;;;;;;8.47;7.67;;;;;;;;;;5090386;28;20663;-73
2023/04/21 07:54:44;;;;;;;9.57;8.10;;;;;;;;;;5073190;28;20287;-75
2023/04/21 07:57:11;;;;;;;9.23;7.83;;;;;;;;;;5072316;28;20197;-75
2023/04/21 07:59:39;;;;;;;9.90;8.90;;;;;;;;;;5090686;28;20310;-75
2023/04/21 08:02:09;;;;;;;11.50;9.43;;;;;;;;;;5090766;28;20212;-75
2023/04/21 08:04:36;;;;;;;10.17;9.17;;;;;;;;;;5090395;28;20295;-75
2023/04/21 08:07:04;;;;;;;12.03;10.20;;;;;;;;;;5090731;28;20204;-75
2023/04/21 08:09:35;;;;;;;12.47;10.33;;;;;;;;;;5090585;28;20315;-74
2023/04/21 08:12:03;;;;;;;12.57;11.07;;;;;;;;;;5072419;28;20212;-75
2023/04/21 08:14:31;;;;;;;12.10;10.73;;;;;;;;;;5072857;28;20603;-76
2023/04/21 08:16:58;;;;;;;15.13;11.80;;;;;;;;;;5091015;28;20208;-74
2023/04/21 08:19:27;;;;;;;14.63;12.80;;;;;;;;;;5090553;28;20221;-74
2023/04/21 08:21:55;;;;;;;14.57;12.43;;;;;;;;;;5090654;28;20310;-75
2023/04/21 08:24:23;;;;;;;14.20;12.50;;;;;;;;;;5090414;28;20204;-75
2023/04/21 08:26:50;;;;;;;15.57;12.00;;;;;;;;;;5089840;28;20201;-74
2023/04/21 08:29:17;;;;;;;12.90;11.50;;;;;;;;;;5090554;28;20244;-75
2023/04/21 08:31:47;;;;;;;13.80;11.60;;;;;;;;;;5089209;28;20224;-75
2023/04/21 08:34:15;;;;;;;11.97;10.57;;;;;;;;;;5090077;28;20217;-74
2023/04/21 08:36:43;;;;;;;12.37;10.50;;;;;;;;;;5090001;28;20211;-75
2023/04/21 08:39:12;;;;;;;11.90;10.50;;;;;;;;;;5090054;28;20817;-73
2023/04/21 08:41:40;;;;;;;13.60;11.43;;;;;;;;;;5089708;28;20207;-75
2023/04/21 08:44:11;;;;;;;12.30;11.00;;;;;;;;;;5089167;28;20292;-74
2023/04/21 08:46:38;;;;;;;13.00;11.60;;;;;;;;;;5070817;28;20621;-72
2023/04/21 08:49:06;;;;;;;12.33;11.03;;;;;;;;;;5089031;28;20259;-73
2023/04/21 08:51:33;;;;;;;13.90;11.47;;;;;;;;;;5088769;28;20260;-74
2023/04/21 08:54:01;;;;;;;16.50;13.13;;;;;;;;;;5089208;28;20208;-73
2023/04/21 08:56:28;;;;;;;14.77;11.97;;;;;;;;;;5088470;28;20197;-73
2023/04/21 08:58:56;;;;;;;13.10;11.40;;;;;;;;;;5088411;28;20315;-71
2023/04/21 09:01:24;;;;;;;14.30;11.83;;;;;;;;;;5088703;28;20209;-72
2023/04/21 09:03:53;;;;;;;15.53;12.00;;;;;;;;;;5070592;28;20530;-75
2023/04/21 09:06:21;;;;;;;15.43;12.43;;;;;;;;;;5088669;28;20220;-73
2023/04/21 09:08:54;;;;;;;16.03;11.87;;;;;;;;;;5088678;28;20832;-74
2023/04/21 09:11:22;;;;;;;14.03;11.77;;;;;;;;;;5088557;28;20224;-74
2023/04/21 09:13:50;;;;;;;16.47;12.30;;;;;;;;;;5088710;28;20205;-74
2023/04/21 09:16:19;;;;;;;19.77;14.43;;;;;;;;;;5087943;28;20201;-74
2023/04/21 09:18:50;;;;;;;14.70;11.97;;;;;;;;;;5088746;28;20252;-72
2023/04/21 09:21:18;;;;;;;13.37;11.30;;;;;;;;;;5088160;28;20689;-72
2023/04/21 09:23:47;;;;;;;13.93;10.67;;;;;;;;;;5088855;28;20677;-73
2023/04/21 09:26:15;;;;;;;19.43;13.90;;;;;;;;;;5088868;28;20266;-74
2023/04/21 09:28:46;;;;;;;14.40;12.00;;;;;;;;;;5088696;28;20227;-74
2023/04/21 09:31:20;;;;;;;20.53;13.67;;;;;;;;;;5087829;28;20274;-73
2023/04/21 09:33:49;;;;;;;20.67;14.37;;;;;;;;;;5088413;28;20272;-73
2023/04/21 09:36:20;;;;;;;22.07;14.57;;;;;;;;;;5070865;28;20204;-74
2023/04/21 09:38:53;;;;;;;18.83;14.23;;;;;;;;;;5087972;28;20220;-73
2023/04/21 09:41:41;;;;;;;20.57;14.70;;;;;;;;;;5088778;28;20224;-73
2023/04/21 09:44:08;;;;;;;17.40;13.73;;;;;;;;;;5088164;28;20240;-73
2023/04/21 09:46:36;;;;;;;18.20;14.07;;;;;;;;;;5074046;28;20201;-73
2023/04/21 09:49:05;;;;;;;18.00;14.83;;;;;;;;;;5088255;28;20599;-72
2023/04/21 09:51:35;;;;;;;16.50;14.33;;;;;;;;;;5068773;28;20229;-73
2023/04/21 09:54:15;;;;;;;17.10;14.23;;;;;;;;;;5067965;28;20228;-72
2023/04/21 09:56:57;;;;;;;16.95;14.40;;;;;;;;;;5048863;28;20248;-73
2023/04/21 09:59:27;;;;;;;17.40;14.20;;;;;;;;;;5067281;28;20228;-73
2023/04/21 10:01:55;;;;;;;17.53;14.27;;;;;;;;;;5068033;28;20659;-71
2023/04/21 10:04:24;;;;;;;16.40;14.10;;;;;;;;;;5067784;28;20229;-72
2023/04/21 10:06:53;;;;;;;16.35;12.38;;;;;;;;;;5067986;28;20212;-72
2023/04/21 10:09:22;;;;;;;16.70;12.93;;;;;;;;;;5067834;28;20220;-74
2023/04/21 10:11:50;;;;;;;14.02;12.27;;;;;;;;;;5073004;28;20296;-73
2023/04/21 10:14:17;;;;;;;15.43;12.45;;;;;;;;;;5084138;28;20205;-73
2023/04/21 10:16:55;;;;;;;17.05;12.18;;;;;;;;;;5070928;28;20292;-73
2023/04/21 10:19:27;;;;;;;14.38;12.35;;;;;;;;;;5071340;28;20243;-73
2023/04/21 10:21:56;;;;;;;14.98;12.48;;;;;;;;;;5079639;28;20623;-73
2023/04/21 10:24:23;;;;;;;13.05;11.02;;;;;;;;;;5090364;28;20213;-72
2023/04/21 10:26:50;;;;;;;14.05;11.00;;;;;;;;;;5091030;28;20240;-73
2023/04/21 10:29:31;;;;;;;11.48;10.27;;;;;;;;;;5071245;28;20316;-73
2023/04/21 10:32:40;;;;;;;10.10;9.00;;;;;;;;;;5070684;28;20225;-72
2023/04/21 10:35:11;;;;;;;12.27;9.88;;;;;;;;;;5070906;28;20619;-73
2023/04/21 10:37:41;;;;;;;11.07;9.18;;;;;;;;;;5071250;28;20223;-73
2023/04/21 10:40:29;;;;;;;9.65;8.70;;;;;;;;;;5071353;28;20218;-73
2023/04/21 10:43:30;;;;;;;7.63;6.93;;;;;;;;;;5067855;28;20211;-73
2023/04/21 10:45:57;;;;;;;7.88;7.10;;;;;;;;;;5083659;28;20216;-73
2023/04/21 10:48:26;;;;;;;8.20;7.40;;;;;;;;;;5070949;28;20633;-72
2023/04/21 10:50:53;;;;;;;7.95;7.25;;;;;;;;;;5053594;28;20316;-73
2023/04/21 10:53:25;;;;;;;8.40;7.60;;;;;;;;;;5078846;28;20255;-73
2023/04/21 10:55:52;;;;;;;7.88;7.07;;;;;;;;;;5090959;28;20195;-73
2023/04/21 10:58:21;;;;;;;9.35;7.30;;;;;;;;;;5091207;28;20224;-73
2023/04/21 11:00:54;;;;;;;8.45;7.00;;;;;;;;;;5091155;28;20690;-73
2023/04/21 11:03:21;;;;;;;8.25;7.45;;;;;;;;;;5053334;28;20229;-73
2023/04/21 11:05:48;;;;;;;7.35;6.65;;;;;;;;;;5052670;28;20647;-73
2023/04/21 11:08:16;;;;;;;6.45;5.85;;;;;;;;;;5052523;28;20296;-73
2023/04/21 11:10:55;;;;;;;6.55;5.72;;;;;;;;;;5083949;28;20201;-73
2023/04/21 11:13:24;;;;;;;11.10;6.10;;;;;;;;;;5070038;28;20235;-73
2023/04/21 11:16:01;;;;;;;10.40;6.07;;;;;;;;;;5062494;28;20212;-72
2023/04/21 11:18:47;;;;;;;6.47;5.88;;;;;;;;;;5050978;28;20256;-73
2023/04/21 11:21:20;;;;;;;5.53;5.03;;;;;;;;;;5050682;28;20206;-74
2023/04/21 11:23:55;;;;;;;5.00;4.45;;;;;;;;;;5064910;28;20220;-72
2023/04/21 11:26:37;;;;;;;9.45;4.97;;;;;;;;;;5052702;28;20606;-73
2023/04/21 11:29:06;;;;;;;5.25;4.65;;;;;;;;;;5070159;28;20275;-72
2023/04/21 11:31:35;;;;;;;5.93;4.70;;;;;;;;;;5082071;28;20236;-73
2023/04/21 11:34:06;;;;;;;4.90;4.50;;;;;;;;;;5051990;28;20208;-74
2023/04/21 11:36:34;;;;;;;4.40;4.00;;;;;;;;;;5067270;28;20208;-73
2023/04/21 11:39:08;;;;;;;5.90;4.55;;;;;;;;;;5069477;28;20255;-73
2023/04/21 11:41:38;;;;;;;5.85;4.68;;;;;;;;;;5070196;28;20209;-73
2023/04/21 11:44:06;;;;;;;4.30;3.47;;;;;;;;;;5067530;28;20252;-74
2023/04/21 11:46:36;;;;;;;3.85;3.55;;;;;;;;;;5080864;28;20545;-72
2023/04/21 11:49:07;;;;;;;3.55;3.30;;;;;;;;;;5051774;28;20709;-73
2023/04/21 11:51:35;;;;;;;4.28;3.92;;;;;;;;;;5051912;28;20217;-73
2023/04/21 11:54:04;;;;;;;3.33;3.13;;;;;;;;;;5051923;28;20230;-73
2023/04/21 11:56:35;;;;;;;4.68;3.33;;;;;;;;;;5069191;28;20256;-74
2023/04/21 11:59:06;;;;;;;3.35;3.05;;;;;;;;;;5069652;28;20221;-73
2023/04/21 12:01:33;;;;;;;3.00;2.80;;;;;;;;;;5064315;28;20205;-73
2023/04/21 12:04:03;;;;;;;3.05;2.85;;;;;;;;;;5089302;28;20212;-72
2023/04/21 12:06:31;;;;;;;6.50;3.45;;;;;;;;;;5047801;28;20202;-73
2023/04/21 12:09:02;;;;;;;5.43;3.00;;;;;;;;;;5049048;28;20230;-72
2023/04/21 12:11:30;;;;;;;4.22;2.70;;;;;;;;;;5043478;28;20760;-71
2023/04/21 12:13:58;;;;;;;3.30;3.00;;;;;;;;;;5076247;28;20197;-71
2023/04/21 12:16:26;;;;;;;3.22;2.90;;;;;;;;;;5089187;28;20254;-72
2023/04/21 12:18:54;;;;;;;3.88;3.03;;;;;;;;;;5063888;28;20236;-73
2023/04/21 12:21:21;;;;;;;2.70;2.50;;;;;;;;;;5068115;28;20239;-73
2023/04/21 12:23:48;;;;;;;4.13;2.80;;;;;;;;;;5068703;28;20712;-72
2023/04/21 12:26:16;;;;;;;2.95;2.75;;;;;;;;;;5068363;28;20841;-73
2023/04/21 12:28:44;;;;;;;3.72;2.63;;;;;;;;;;5068007;28;20217;-74
2023/04/21 12:31:11;;;;;;;2.65;2.45;;;;;;;;;;5067308;28;20917;-73
2023/04/21 12:33:38;;;;;;;2.80;2.60;;;;;;;;;;5068387;28;20790;-73
2023/04/21 12:36:06;;;;;;;1.73;1.52;;;;;;;;;;5068413;28;20755;-73
2023/04/21 12:38:33;;;;;;;2.00;1.90;;;;;;;;;;5071049;28;20240;-74
2023/04/21 12:41:00;;;;;;;2.60;2.40;;;;;;;;;;5088600;28;20602;-73
2023/04/21 12:43:27;;;;;;;2.40;2.20;;;;;;;;;;5051428;28;20920;-74
2023/04/21 12:45:55;;;;;;;2.30;2.10;;;;;;;;;;5068865;28;20346;-73
2023/04/21 12:48:22;;;;;;;2.60;2.40;;;;;;;;;;5068169;28;20202;-73
2023/04/21 12:50:49;;;;;;;10.50;7.18;;;;;;;;;;5071957;28;20205;-72
2023/04/21 12:53:17;;;;;;;3.25;2.30;;;;;;;;;;5067710;28;20307;-74
2023/04/21 12:55:44;;;;;;;2.33;2.22;;;;;;;;;;5068636;28;20236;-72
2023/04/21 12:58:30;;;;;;;3.10;2.90;;;;;;;;;;5067060;28;20284;-71
2023/04/21 13:00:57;;;;;;;2.88;1.63;;;;;;;;;;5073942;28;20200;-74
2023/04/21 13:03:25;;;;;;;1.95;1.85;;;;;;;;;;5077243;28;20236;-72
2023/04/21 13:05:52;;;;;;;3.50;2.25;;;;;;;;;;5073393;28;20209;-72
2023/04/21 13:08:20;;;;;;;3.28;2.40;;;;;;;;;;5073753;28;20243;-73
2023/04/21 13:10:48;;;;;;;2.47;2.28;;;;;;;;;;5088716;28;20658;-73
2023/04/21 13:13:15;;;;;;;2.58;2.38;;;;;;;;;;5089073;28;20674;-71
2023/04/21 13:15:42;;;;;;;3.13;2.90;;;;;;;;;;5087284;28;20204;-73
2023/04/21 13:18:10;;;;;;;2.90;2.70;;;;;;;;;;5088986;28;20296;-72
2023/04/21 13:20:37;;;;;;;2.75;2.55;;;;;;;;;;5088658;28;20244;-73
2023/04/21 13:23:04;;;;;;;2.85;2.65;;;;;;;;;;5070524;28;20209;-73
2023/04/21 13:25:32;;;;;;;3.22;3.03;;;;;;;;;;5064713;28;21261;-74
2023/04/21 13:27:59;;;;;;;3.40;3.10;;;;;;;;;;5066286;28;20701;-73
2023/04/21 13:30:27;;;;;;;4.18;3.88;;;;;;;;;;5068507;28;20294;-72
2023/04/21 13:32:54;;;;;;;3.58;3.08;;;;;;;;;;5056684;28;20217;-73
2023/04/21 13:35:24;;;;;;;2.95;2.75;;;;;;;;;;5067010;28;20209;-72
2023/04/21 13:37:51;;;;;;;3.47;3.13;;;;;;;;;;5067880;28;20206;-73
2023/04/21 13:40:19;;;;;;;2.97;2.70;;;;;;;;;;5073890;28;20698;-74
2023/04/21 13:42:46;;;;;;;3.45;3.15;;;;;;;;;;5070370;28;20324;-73
2023/04/21 13:45:14;;;;;;;3.80;3.50;;;;;;;;;;5071823;28;20579;-75
2023/04/21 13:47:41;;;;;;;3.75;3.45;;;;;;;;;;5084546;28;20204;-75
2023/04/21 13:50:09;;;;;;;4.30;3.80;;;;;;;;;;5089919;28;20590;-74
2023/04/21 13:52:37;;;;;;;5.72;4.20;;;;;;;;;;5074539;28;20232;-73
2023/04/21 13:55:04;;;;;;;4.78;4.38;;;;;;;;;;5080430;28;20246;-74
2023/04/21 13:57:32;;;;;;;6.15;4.70;;;;;;;;;;5053845;28;20213;-72
2023/04/21 13:59:59;;;;;;;4.82;4.43;;;;;;;;;;5057678;28;20311;-73
2023/04/21 14:02:26;;;;;;;7.05;5.05;;;;;;;;;;5073844;28;20622;-75
2023/04/21 14:04:54;;;;;;;6.50;5.25;;;;;;;;;;5077746;28;20236;-72
2023/04/21 14:07:22;;;;;;;6.28;5.20;;;;;;;;;;5071698;28;20301;-73
2023/04/21 14:09:53;;;;;;;6.18;5.43;;;;;;;;;;5062332;28;20264;-72
2023/04/21 14:12:20;;;;;;;5.68;5.18;;;;;;;;;;5081029;28;20225;-72
2023/04/21 14:14:47;;;;;;;6.15;5.30;;;;;;;;;;5079528;28;20236;-72
2023/04/21 14:17:15;;;;;;;6.20;5.60;;;;;;;;;;5082724;28;20209;-73
2023/04/21 14:19:43;;;;;;;14.07;6.72;;;;;;;;;;5073142;28;20224;-75
2023/04/21 14:22:10;;;;;;;7.07;5.43;;;;;;;;;;5050687;28;20283;-75
2023/04/21 14:24:38;;;;;;;8.38;5.53;;;;;;;;;;5035585;28;20736;-76
2023/04/21 14:27:05;;;;;;;6.32;5.72;;;;;;;;;;5041633;28;20211;-75
2023/04/21 14:29:32;;;;;;;5.85;5.25;;;;;;;;;;5047693;28;20302;-75
2023/04/21 14:32:00;;;;;;;5.90;5.40;;;;;;;;;;5039423;28;20221;-75
2023/04/21 14:34:28;;;;;;;6.45;5.85;;;;;;;;;;5040141;28;20342;-75
2023/04/21 14:36:56;;;;;;;5.57;5.07;;;;;;;;;;5041005;28;20255;-76
2023/04/21 14:39:23;;;;;;;6.45;5.85;;;;;;;;;;5044662;28;20236;-75